Terminal Aerodrome Forecast
Issued by NWS Cleveland, OH

Home | Current Version | Previous Version | Graphics & Text | Print | Product List | Glossary On
Versions: 1 2 3 4 5 6 7 8 9 10 11 12 13 14 15 16 17 18 19 20 21
937
FTUS41 KCLE 261130
TAFYNG
TAF
KYNG 261130Z 2612/2712 23011KT 6SM BR VCSH SCT015 BKN080
     FM261500 30012KT 6SM BR VCSH OVC010
     FM262200 35012KT P6SM OVC018=

USA.gov is the U.S. government's official web portal to all federal, state and local government web resources and services.